Time;durP1;ratioP1;P1;durP2;ratioP2;P2;SDS_P1;SDS_P2;PMS_P1;PMS_P2;Temp;Humidity;BMP_temperature;BMP_pressure;BME280_temperature;BME280_humidity;BME280_pressure;Samples;Min_cycle;Max_cycle;Signal;HPM_P1;HPM_P2
2024/01/13 00:02:01;;;;;;;31.27;14.00;;;-1.40;88.30;;;-1.77;55.19;95400.09;5008448;28;20945;-61
2024/01/13 00:04:29;;;;;;;31.77;13.50;;;-1.40;88.00;;;-1.78;55.09;95395.84;5008699;28;20511;-61
2024/01/13 00:06:57;;;;;;;29.43;15.20;;;-1.30;87.80;;;-1.78;55.35;95411.31;5008675;28;21021;-59
2024/01/13 00:09:25;;;;;;;27.10;13.77;;;-1.40;87.60;;;-1.76;55.15;95395.78;5008851;28;20544;-59
2024/01/13 00:11:52;;;;;;;33.80;14.47;;;-1.40;87.60;;;-1.75;55.57;95390.59;5009091;28;20592;-60
2024/01/13 00:14:19;;;;;;;26.50;13.73;;;-1.30;87.70;;;-1.71;55.23;95392.13;5009050;28;20457;-60
2024/01/13 00:16:47;;;;;;;26.70;13.83;;;-1.30;87.50;;;-1.69;55.05;95389.50;5008661;28;20480;-61
2024/01/13 00:19:14;;;;;;;23.37;12.07;;;-1.30;87.30;;;-1.69;54.71;95384.34;5010854;28;20454;-59
2024/01/13 00:21:41;;;;;;;25.33;13.00;;;-1.30;87.10;;;-1.68;54.87;95389.47;5012333;28;20477;-58
2024/01/13 00:24:11;;;;;;;26.30;13.70;;;-1.30;87.00;;;-1.65;54.58;95385.94;5012130;28;20464;-61
2024/01/13 00:26:38;;;;;;;23.63;12.07;;;-1.20;86.80;;;-1.66;54.96;95389.41;5011950;28;20500;-59
2024/01/13 00:29:06;;;;;;;25.47;13.30;;;-1.30;86.30;;;-1.65;54.69;95391.09;5012376;28;20448;-58
2024/01/13 00:31:33;;;;;;;21.90;11.80;;;-1.20;86.40;;;-1.64;54.76;95395.38;5012019;28;20477;-59
2024/01/13 00:34:01;;;;;;;22.50;12.00;;;-1.20;86.50;;;-1.64;54.30;95392.78;5012111;28;20966;-61
2024/01/13 00:36:28;;;;;;;22.30;12.00;;;-1.20;86.30;;;-1.63;54.47;95394.44;5011923;28;20485;-59
2024/01/13 00:38:55;;;;;;;26.20;13.20;;;-1.20;86.30;;;-1.60;54.64;95394.34;5011987;28;20454;-61
2024/01/13 00:41:24;;;;;;;27.20;12.43;;;-1.20;86.50;;;-1.56;54.53;95388.19;5012276;28;20466;-61
2024/01/13 00:43:52;;;;;;;46.83;16.47;;;-1.20;86.50;;;-1.52;54.50;95387.22;5011940;28;20921;-59
2024/01/13 00:46:19;;;;;;;25.70;12.30;;;-1.10;86.30;;;-1.49;54.61;95379.34;5011609;28;20520;-58
2024/01/13 00:48:46;;;;;;;27.33;12.90;;;-1.10;86.30;;;-1.47;54.25;95393.03;5012037;28;20513;-59
2024/01/13 00:51:14;;;;;;;26.63;13.20;;;-1.10;85.90;;;-1.45;54.10;95383.50;5011865;28;20478;-58
2024/01/13 00:53:42;;;;;;;24.13;13.03;;;-1.10;86.10;;;-1.41;54.22;95378.22;5011575;28;20548;-58
2024/01/13 00:56:09;;;;;;;24.87;13.53;;;-1.00;86.10;;;-1.40;54.27;95379.91;5011725;28;20531;-60
2024/01/13 00:58:38;;;;;;;29.50;14.07;;;-1.00;85.90;;;-1.36;54.44;95391.81;5011489;28;20508;-59
2024/01/13 01:01:05;;;;;;;21.77;12.40;;;-1.00;86.10;;;-1.36;54.34;95379.75;5011493;28;20476;-59
2024/01/13 01:03:32;;;;;;;24.60;13.00;;;-1.00;85.90;;;-1.34;54.40;95385.69;5011269;28;20458;-61
2024/01/13 01:06:00;;;;;;;25.00;14.40;;;-1.00;85.90;;;-1.31;54.28;95392.50;5011592;28;20498;-59
2024/01/13 01:08:27;;;;;;;32.67;12.77;;;-0.90;86.10;;;-1.29;54.39;95388.09;5011509;28;20458;-59
2024/01/13 01:10:55;;;;;;;32.50;15.20;;;-0.90;86.20;;;-1.29;54.56;95377.78;5011981;28;20541;-59
2024/01/13 01:13:24;;;;;;;26.23;14.17;;;-0.90;86.00;;;-1.26;54.62;95383.66;5012996;28;20456;-62
2024/01/13 01:15:53;;;;;;;24.70;12.50;;;-0.90;86.00;;;-1.24;54.51;95370.69;5011524;28;20528;-59
2024/01/13 01:18:20;;;;;;;22.03;12.30;;;-0.80;85.90;;;-1.20;54.19;95369.69;5011819;28;20469;-60
2024/01/13 01:20:47;;;;;;;28.70;11.63;;;-0.80;85.80;;;-1.16;54.41;95373.88;5011938;28;20474;-62
2024/01/13 01:23:15;;;;;;;25.17;12.63;;;-0.80;85.80;;;-1.14;53.71;95361.72;5012795;28;20464;-60
2024/01/13 01:25:42;;;;;;;26.13;13.13;;;-0.80;85.80;;;-1.15;54.16;95360.03;5012160;28;20489;-59
2024/01/13 01:28:09;;;;;;;23.27;12.20;;;-0.70;85.80;;;-1.12;54.49;95357.34;5012958;28;20449;-61
2024/01/13 01:30:37;;;;;;;21.50;13.27;;;-0.70;85.90;;;-1.09;54.35;95351.25;5010948;28;20474;-60
2024/01/13 01:33:06;;;;;;;25.20;13.30;;;-0.70;85.90;;;-1.05;54.51;95360.56;5011070;28;20863;-59
2024/01/13 01:35:33;;;;;;;34.37;14.73;;;-0.70;85.90;;;-1.01;54.43;95351.78;5008968;28;20525;-63
2024/01/13 01:38:00;;;;;;;32.40;13.77;;;-0.60;86.00;;;-0.99;54.25;95351.72;5008342;28;20504;-59
2024/01/13 01:40:28;;;;;;;29.97;14.97;;;-0.60;85.80;;;-0.97;54.19;95347.38;5010513;28;20817;-58
2024/01/13 01:42:55;;;;;;;27.93;13.17;;;-0.60;85.80;;;-0.95;54.30;95345.56;5010843;28;20453;-59
2024/01/13 01:45:22;;;;;;;29.70;14.17;;;-0.60;86.00;;;-0.94;54.63;95349.81;5007415;28;20470;-59
2024/01/13 01:47:50;;;;;;;25.00;12.83;;;-0.60;86.00;;;-0.93;54.22;95356.66;5006207;28;20446;-59
2024/01/13 01:50:18;;;;;;;25.13;12.03;;;-0.60;86.00;;;-0.90;54.45;95359.13;5009784;28;21014;-59
2024/01/13 01:52:46;;;;;;;33.13;14.40;;;-0.50;86.10;;;-0.87;54.82;95364.16;5007112;28;20447;-60
2024/01/13 01:55:13;;;;;;;28.90;12.70;;;-0.50;86.40;;;-0.85;53.81;95370.13;5010292;28;20477;-61
2024/01/13 01:57:40;;;;;;;23.53;12.80;;;-0.50;86.30;;;-0.81;54.31;95369.09;5010080;28;20842;-60
2024/01/13 02:00:09;;;;;;;25.50;12.43;;;-0.40;86.60;;;-0.77;54.25;95362.91;5009252;28;20988;-60
2024/01/13 02:02:37;;;;;;;26.70;13.33;;;-0.40;86.50;;;-0.75;54.41;95357.69;5010077;28;20533;-61
2024/01/13 02:05:05;;;;;;;27.17;12.87;;;-0.40;86.60;;;-0.73;55.04;95361.06;5003895;28;20466;-61
2024/01/13 02:07:34;;;;;;;24.23;12.50;;;-0.30;86.60;;;-0.71;54.29;95354.09;5010638;28;20528;-61
2024/01/13 02:10:03;;;;;;;28.50;12.73;;;-0.30;86.60;;;-0.70;54.53;95357.53;5010175;28;20466;-60
2024/01/13 02:12:30;;;;;;;29.80;13.70;;;-0.30;86.60;;;-0.68;54.76;95368.63;5010046;28;20997;-59
2024/01/13 02:14:57;;;;;;;29.53;14.10;;;-0.30;86.60;;;-0.68;54.17;95364.31;5010074;28;20568;-60
2024/01/13 02:17:24;;;;;;;27.90;13.33;;;-0.30;86.60;;;-0.68;54.93;95360.88;5010213;28;20453;-58
2024/01/13 02:19:52;;;;;;;23.07;12.20;;;-0.30;86.60;;;-0.67;54.90;95349.66;5010125;28;20458;-58
2024/01/13 02:22:20;;;;;;;25.47;12.60;;;-0.30;86.60;;;-0.67;54.33;95339.31;5010178;28;20897;-59
2024/01/13 02:24:48;;;;;;;22.10;12.47;;;-0.30;87.40;;;-0.67;54.21;95334.16;5009195;28;20843;-59
2024/01/13 02:27:15;;;;;;;26.70;12.80;;;-0.30;86.50;;;-0.67;54.52;95334.16;5006428;28;20489;-58
2024/01/13 02:29:42;;;;;;;33.43;14.53;;;-0.30;86.50;;;-0.66;54.85;95333.25;5009587;28;20460;-60
2024/01/13 02:32:09;;;;;;;26.80;13.60;;;-0.30;86.40;;;-0.66;54.48;95336.69;5009395;28;20472;-60
2024/01/13 02:34:37;;;;;;;28.90;13.90;;;-0.30;86.60;;;-0.66;54.69;95338.44;5009561;28;20450;-59
2024/01/13 02:37:04;;;;;;;26.67;13.73;;;-0.30;86.60;;;-0.64;54.14;95339.19;5009875;28;20453;-60
2024/01/13 02:39:33;;;;;;;21.53;11.83;;;-0.30;86.30;;;-0.63;54.30;95335.72;5009663;28;20536;-58
2024/01/13 02:42:00;;;;;;;34.57;13.27;;;-0.20;86.30;;;-0.65;53.95;95328.03;5009373;28;20500;-59
2024/01/13 02:44:28;;;;;;;24.37;12.83;;;-0.30;85.70;;;-0.65;54.16;95327.19;5007739;28;20476;-60
2024/01/13 02:46:55;;;;;;;26.30;12.77;;;-0.20;85.90;;;-0.65;54.67;95324.59;5008245;28;20493;-57
2024/01/13 02:49:22;;;;;;;26.83;12.40;;;-0.20;85.90;;;-0.64;53.85;95337.44;5007952;28;20792;-61
2024/01/13 02:51:49;;;;;;;28.33;12.60;;;-0.30;85.60;;;-0.65;54.15;95334.94;5008632;28;20497;-61
2024/01/13 02:54:17;;;;;;;27.47;13.10;;;-0.30;85.40;;;-0.66;53.99;95331.50;5008092;28;20442;-60
2024/01/13 02:56:45;;;;;;;28.20;15.00;;;-0.30;85.20;;;-0.66;53.86;95328.94;5008954;28;20548;-60
2024/01/13 02:59:13;;;;;;;26.00;13.93;;;-0.30;85.10;;;-0.66;53.88;95328.09;5002294;28;20453;-61
2024/01/13 03:01:40;;;;;;;28.73;13.43;;;-0.20;85.20;;;-0.68;53.74;95333.31;5009547;28;20461;-61
2024/01/13 03:04:07;;;;;;;30.43;13.53;;;-0.30;85.00;;;-0.68;53.65;95342.78;5005787;28;20463;-58
2024/01/13 03:06:35;;;;;;;26.80;13.33;;;-0.30;85.10;;;-0.70;53.48;95345.44;5009147;28;20571;-60
2024/01/13 03:09:02;;;;;;;28.47;13.77;;;-0.30;85.00;;;-0.72;53.88;95361.00;5009211;28;20450;-60
2024/01/13 03:11:29;;;;;;;24.57;12.57;;;-0.30;85.00;;;-0.74;53.75;95370.56;5009525;28;20478;-59
2024/01/13 03:13:58;;;;;;;27.43;13.97;;;-0.40;85.00;;;-0.76;53.89;95354.28;5008581;28;20446;-61
2024/01/13 03:16:26;;;;;;;23.13;12.63;;;-0.40;85.00;;;-0.78;54.41;95361.22;5007504;28;21010;-59
2024/01/13 03:18:53;;;;;;;28.87;14.43;;;-0.40;85.70;;;-0.84;54.10;95356.31;4998947;28;20458;-59
2024/01/13 03:21:20;;;;;;;24.03;13.57;;;-0.40;85.00;;;-0.84;53.55;95366.63;5009064;28;20485;-60
2024/01/13 03:23:48;;;;;;;25.20;12.70;;;-0.40;85.00;;;-0.87;53.85;95359.00;5008877;28;20450;-61
2024/01/13 03:26:15;;;;;;;25.17;13.77;;;-0.50;84.50;;;-0.89;53.51;95365.97;5007194;28;20551;-59
2024/01/13 03:28:42;;;;;;;21.23;12.50;;;-0.50;84.20;;;-0.92;54.04;95369.50;5006213;28;20604;-59
2024/01/13 03:31:11;;;;;;;24.00;13.17;;;-0.50;84.20;;;-0.93;53.29;95362.69;5008574;28;21012;-60
2024/01/13 03:33:39;;;;;;;26.70;13.80;;;-0.50;84.40;;;-0.95;53.35;95366.22;5006290;28;20537;-59
2024/01/13 03:36:06;;;;;;;30.07;13.83;;;-0.60;84.20;;;-0.96;54.28;95364.50;5002021;28;20556;-61
2024/01/13 03:38:34;;;;;;;26.53;14.00;;;-0.50;84.50;;;-0.98;53.93;95366.31;5009285;28;20450;-60
2024/01/13 03:41:01;;;;;;;29.53;13.13;;;-0.60;84.40;;;-1.00;54.03;95355.22;5005486;28;20469;-60
2024/01/13 03:43:28;;;;;;;24.50;12.97;;;-0.60;84.10;;;-1.06;53.46;95352.88;5006715;28;20449;-59
2024/01/13 03:45:56;;;;;;;24.27;13.03;;;-0.60;84.30;;;-1.07;53.78;95349.44;5004799;28;20549;-60
2024/01/13 03:48:24;;;;;;;21.27;12.60;;;-0.70;84.10;;;-1.10;53.87;95347.81;5004824;28;20906;-60
2024/01/13 03:50:51;;;;;;;27.40;14.00;;;-0.70;84.60;;;-1.11;53.60;95340.13;5008741;28;20470;-61
2024/01/13 03:53:19;;;;;;;27.13;14.50;;;-0.70;84.70;;;-1.12;53.94;95346.19;5006565;28;20502;-59
2024/01/13 03:55:46;;;;;;;30.60;14.27;;;-0.70;84.70;;;-1.14;53.62;95348.00;5013659;28;20475;-61
2024/01/13 03:58:13;;;;;;;32.17;14.57;;;-0.70;84.70;;;-1.17;53.98;95343.78;5010552;28;20469;-61
2024/01/13 04:00:41;;;;;;;27.03;13.40;;;-0.70;84.50;;;-1.19;53.72;95348.16;5010146;28;20469;-61
2024/01/13 04:03:09;;;;;;;24.80;13.67;;;-0.70;84.70;;;-1.21;53.71;95341.38;5008849;28;20445;-61
2024/01/13 04:05:37;;;;;;;31.70;16.40;;;-0.80;84.60;;;-1.19;54.19;95337.84;5012061;28;20480;-59
2024/01/13 04:08:05;;;;;;;24.43;14.33;;;-0.80;84.60;;;-1.19;54.06;95344.72;5005731;28;20492;-59
2024/01/13 04:10:32;;;;;;;27.27;13.47;;;-0.80;84.50;;;-1.20;53.70;95349.06;5011959;28;21031;-58
2024/01/13 04:13:00;;;;;;;28.07;14.33;;;-0.80;84.50;;;-1.23;54.25;95349.16;5004471;28;20445;-61
2024/01/13 04:15:28;;;;;;;28.97;15.20;;;-0.80;84.60;;;-1.26;54.13;95352.69;5011439;28;20458;-59
2024/01/13 04:17:55;;;;;;;25.90;13.70;;;-0.80;84.60;;;-1.28;54.60;95354.50;5007430;28;20454;-59
2024/01/13 04:20:22;;;;;;;25.80;13.93;;;-0.90;84.70;;;-1.30;54.58;95355.44;5011887;28;20493;-59
2024/01/13 04:22:51;;;;;;;28.00;14.13;;;-0.90;84.90;;;-1.33;54.10;95359.00;5010925;28;20449;-59
2024/01/13 04:25:18;;;;;;;25.30;14.60;;;-0.90;85.00;;;-1.35;54.45;95355.63;5009597;28;20461;-57
2024/01/13 04:27:46;;;;;;;24.37;14.50;;;-0.90;85.00;;;-1.37;54.18;95360.00;5011976;28;20491;-59
2024/01/13 04:30:14;;;;;;;28.00;15.53;;;-1.00;84.80;;;-1.41;54.24;95373.06;5011599;28;20477;-58
2024/01/13 04:32:42;;;;;;;32.40;13.70;;;-1.00;84.80;;;-1.45;54.41;95374.91;5011903;28;20461;-61
2024/01/13 04:35:10;;;;;;;31.50;14.50;;;-1.00;84.70;;;-1.47;54.08;95374.97;5011527;28;20596;-58
2024/01/13 04:37:37;;;;;;;26.63;13.67;;;-1.00;84.40;;;-1.50;54.17;95379.41;5011578;28;20453;-61
2024/01/13 04:40:08;;;;;;;24.63;12.03;;;-1.10;84.30;;;-1.54;53.94;95373.50;5007627;28;21005;-60
2024/01/13 04:42:36;;;;;;;24.40;13.77;;;-1.10;84.30;;;-1.57;54.00;95378.75;5008245;28;20541;-59
2024/01/13 04:45:03;;;;;;;28.40;14.20;;;-1.10;84.30;;;-1.63;53.83;95376.41;5010232;28;20477;-58
2024/01/13 04:47:30;;;;;;;35.53;14.47;;;-1.20;84.20;;;-1.63;54.05;95390.16;5002208;28;20588;-58
2024/01/13 04:49:58;;;;;;;26.83;12.97;;;-1.20;84.20;;;-1.64;54.04;95377.31;5007292;28;20458;-58
2024/01/13 04:52:25;;;;;;;29.37;13.93;;;-1.20;84.20;;;-1.66;54.10;95385.09;5011649;28;20992;-57
2024/01/13 04:54:52;;;;;;;24.13;13.33;;;-1.20;84.20;;;-1.67;54.21;95390.31;5007171;28;20461;-59
2024/01/13 04:57:21;;;;;;;26.83;13.63;;;-1.20;85.00;;;-1.67;54.36;95377.44;5011378;28;20450;-61
2024/01/13 04:59:49;;;;;;;25.70;12.77;;;-1.30;84.30;;;-1.69;54.07;95379.19;5006915;28;20453;-60
2024/01/13 05:02:16;;;;;;;31.37;13.10;;;-1.20;84.20;;;-1.69;54.22;95384.34;5009963;28;20445;-60
2024/01/13 05:04:43;;;;;;;27.47;13.20;;;-1.30;84.10;;;-1.70;54.02;95387.84;5009809;28;20715;-60
2024/01/13 05:07:11;;;;;;;21.53;12.67;;;-1.30;84.30;;;-1.71;53.95;95386.16;5010915;28;20854;-60
2024/01/13 05:09:39;;;;;;;29.60;14.23;;;-1.30;84.50;;;-1.72;54.52;95376.72;5008037;28;20442;-58
2024/01/13 05:12:07;;;;;;;31.37;14.10;;;-1.30;84.60;;;-1.72;54.16;95376.72;5007655;28;20482;-59
2024/01/13 05:14:36;;;;;;;23.10;13.07;;;-1.30;84.70;;;-1.74;54.20;95365.63;5006871;28;20457;-60
2024/01/13 05:17:04;;;;;;;22.53;12.30;;;-1.30;84.50;;;-1.76;54.52;95363.09;5005044;28;20902;-58
2024/01/13 05:19:31;;;;;;;28.70;13.50;;;-1.30;84.60;;;-1.77;54.28;95350.25;5004022;28;20950;-61
2024/01/13 05:21:59;;;;;;;27.37;13.20;;;-1.40;84.70;;;-1.79;54.43;95347.75;5000616;28;20474;-60
2024/01/13 05:24:26;;;;;;;28.93;13.00;;;-1.40;84.60;;;-1.82;54.51;95347.84;5006638;28;20500;-60
2024/01/13 05:26:54;;;;;;;27.60;14.17;;;-1.40;84.50;;;-1.85;54.09;95343.63;5007466;28;20709;-62
2024/01/13 05:29:21;;;;;;;27.10;13.60;;;-1.40;84.40;;;-1.89;53.77;95333.47;5010800;28;20456;-58
2024/01/13 05:31:49;;;;;;;28.40;12.80;;;-1.40;84.10;;;-1.91;54.24;95328.38;5005439;28;20465;-59
2024/01/13 05:34:17;;;;;;;29.00;13.77;;;-1.50;84.00;;;-1.93;54.33;95335.31;5006382;28;20446;-61
2024/01/13 05:36:44;;;;;;;32.23;14.83;;;-1.50;84.20;;;-1.94;53.90;95333.63;5010150;28;20476;-58
2024/01/13 05:39:12;;;;;;;31.60;15.93;;;-1.50;84.40;;;-1.95;53.93;95336.25;5010648;28;20535;-58
2024/01/13 05:41:39;;;;;;;34.97;16.50;;;-1.50;84.20;;;-1.98;53.90;95339.81;5010914;28;20473;-59
2024/01/13 05:44:06;;;;;;;29.27;13.83;;;-1.50;84.20;;;-1.97;54.07;95354.34;5007968;28;20457;-59
2024/01/13 05:46:34;;;;;;;31.17;14.50;;;-1.50;84.40;;;-1.99;54.24;95363.88;5006397;28;20528;-61
2024/01/13 05:49:02;;;;;;;24.60;14.57;;;-1.50;84.50;;;-2.00;54.05;95363.06;5010625;28;20958;-60
2024/01/13 05:51:29;;;;;;;24.83;13.03;;;-1.50;84.70;;;-1.99;54.54;95361.31;5010591;28;20484;-60
2024/01/13 05:53:57;;;;;;;32.97;16.60;;;-1.60;84.60;;;-2.00;54.15;95363.06;5007602;28;20463;-60
2024/01/13 05:56:24;;;;;;;39.07;18.00;;;-1.50;84.50;;;-2.01;54.01;95365.69;5009293;28;20694;-61
2024/01/13 05:58:52;;;;;;;34.63;14.10;;;-1.60;84.50;;;-2.01;54.11;95360.53;5009826;28;20457;-62
2024/01/13 06:01:19;;;;;;;28.60;15.10;;;-1.60;85.30;;;-2.00;54.11;95359.63;5006099;28;20474;-61
2024/01/13 06:03:48;;;;;;;30.23;14.80;;;-1.60;84.70;;;-2.00;54.32;95364.78;5002921;28;20565;-62
2024/01/13 06:06:17;;;;;;;24.07;12.53;;;-1.60;85.00;;;-2.01;54.49;95365.69;5004590;28;20469;-60
2024/01/13 06:08:44;;;;;;;27.03;13.20;;;-1.60;84.70;;;-2.02;54.16;95361.41;5004788;28;20829;-59
2024/01/13 06:11:11;;;;;;;31.17;14.80;;;-1.60;84.70;;;-2.01;54.27;95357.97;5007917;28;20472;-59
2024/01/13 06:13:39;;;;;;;30.80;14.40;;;-1.60;84.50;;;-1.99;54.51;95362.16;5004514;28;20457;-60
2024/01/13 06:16:08;;;;;;;27.33;12.93;;;-1.60;84.70;;;-1.95;54.47;95360.31;5006186;28;20480;-61
2024/01/13 06:18:35;;;;;;;32.40;13.23;;;-1.50;84.90;;;-1.92;54.39;95357.66;5005844;28;20457;-62
2024/01/13 06:21:03;;;;;;;29.43;15.00;;;-1.50;84.90;;;-1.87;54.25;95363.47;5008771;28;20470;-62
2024/01/13 06:23:31;;;;;;;31.03;15.07;;;-1.40;85.10;;;-1.83;53.55;95361.63;5009789;28;20446;-59
2024/01/13 06:25:59;;;;;;;27.90;13.70;;;-1.40;84.90;;;-1.79;54.35;95362.38;5009702;28;20466;-62
2024/01/13 06:28:26;;;;;;;28.03;12.57;;;-1.40;84.90;;;-1.76;54.18;95351.97;5009659;28;20489;-60
2024/01/13 06:30:53;;;;;;;27.00;13.50;;;-1.40;84.70;;;-1.73;54.35;95351.84;5009524;28;21017;-61
2024/01/13 06:33:20;;;;;;;32.80;14.43;;;-1.30;84.70;;;-1.67;54.53;95356.78;5007669;28;20450;-61
2024/01/13 06:35:48;;;;;;;24.90;13.03;;;-1.30;84.40;;;-1.61;53.98;95359.16;5009475;28;20557;-59
2024/01/13 06:38:16;;;;;;;27.80;15.03;;;-1.20;84.20;;;-1.55;53.62;95355.50;5009366;28;20488;-61
2024/01/13 06:40:45;;;;;;;32.93;14.00;;;-1.20;84.10;;;-1.54;54.76;95347.72;5011152;28;20574;-62
2024/01/13 06:43:13;;;;;;;32.33;13.60;;;-1.20;86.50;;;-1.51;53.59;95342.44;5008587;28;20473;-60
2024/01/13 06:45:40;;;;;;;29.77;14.90;;;-1.10;84.50;;;-1.46;53.82;95357.75;5009362;28;20504;-61
2024/01/13 06:48:07;;;;;;;31.43;14.03;;;-1.10;84.20;;;-1.41;53.61;95367.91;5007893;28;20489;-61
2024/01/13 06:50:35;;;;;;;32.50;15.07;;;-1.10;83.80;;;-1.29;53.74;95367.47;5009062;28;20932;-60
2024/01/13 06:53:02;;;;;;;30.67;15.07;;;-0.90;84.10;;;-0.96;53.15;95372.25;5009629;28;20446;-61
2024/01/13 06:55:30;;;;;;;27.97;15.17;;;-0.60;84.20;;;-0.52;53.10;95371.47;5008809;28;20524;-60
2024/01/13 06:57:58;;;;;;;28.93;13.40;;;-0.20;84.30;;;-0.01;52.75;95376.25;5009783;28;20445;-59
2024/01/13 07:00:26;;;;;;;25.03;12.80;;;0.30;83.60;;;0.53;51.00;95371.41;5009061;28;20826;-61
2024/01/13 07:02:54;;;;;;;27.87;13.83;;;0.80;82.10;;;0.98;50.71;95377.19;5004472;28;20536;-61
2024/01/13 07:05:21;;;;;;;29.80;13.30;;;1.30;80.60;;;1.45;50.55;95372.50;5008342;28;20470;-60
2024/01/13 07:07:48;;;;;;;28.10;13.50;;;1.80;80.80;;;2.01;49.73;95388.84;5009269;28;20485;-60
2024/01/13 07:10:16;;;;;;;24.10;12.50;;;2.30;78.80;;;2.44;49.08;95391.91;5007019;28;20469;-58
2024/01/13 07:12:43;;;;;;;24.10;11.40;;;2.70;77.90;;;2.53;46.56;95390.59;5009106;28;20522;-60
2024/01/13 07:15:12;;;;;;;23.60;13.27;;;2.90;74.00;;;2.32;47.70;95396.78;5009183;28;20485;-60
2024/01/13 07:17:39;;;;;;;23.40;12.20;;;2.80;72.20;;;2.06;47.43;95392.03;5005403;28;20457;-60
2024/01/13 07:20:08;;;;;;;26.00;13.50;;;2.60;72.70;;;1.78;47.46;95395.97;5008627;28;20465;-61
2024/01/13 07:22:36;;;;;;;18.97;13.00;;;2.30;72.20;;;1.52;48.72;95394.59;5005768;28;20461;-61
2024/01/13 07:25:03;;;;;;;27.53;14.37;;;2.00;72.70;;;1.30;48.59;95403.41;5009159;28;20465;-61
2024/01/13 07:27:30;;;;;;;22.50;11.60;;;1.80;73.70;;;1.08;49.11;95398.34;5008949;28;20481;-61
2024/01/13 07:29:59;;;;;;;25.80;14.23;;;1.50;74.20;;;0.89;49.29;95408.69;5013241;28;20466;-60
2024/01/13 07:32:28;;;;;;;24.17;14.17;;;1.30;74.50;;;0.74;49.21;95411.94;5008743;28;20520;-60
2024/01/13 07:34:55;;;;;;;26.50;13.77;;;1.20;74.40;;;0.62;49.21;95401.22;5012693;28;20496;-62
2024/01/13 07:37:22;;;;;;;27.90;14.13;;;1.00;74.90;;;0.53;50.13;95406.81;5012698;28;20531;-61
2024/01/13 07:39:50;;;;;;;24.43;14.20;;;0.90;75.70;;;0.44;50.82;95408.03;5013038;28;20937;-60
2024/01/13 07:42:18;;;;;;;28.47;15.47;;;0.90;76.20;;;0.34;50.44;95399.81;5011564;28;20446;-61
2024/01/13 07:44:45;;;;;;;29.13;13.73;;;0.70;76.40;;;0.30;49.94;95400.84;5012826;28;20473;-64
2024/01/13 07:47:12;;;;;;;34.40;15.13;;;0.70;76.90;;;0.27;50.91;95395.81;5012565;28;20450;-61
2024/01/13 07:49:41;;;;;;;26.60;13.40;;;0.60;77.40;;;0.23;51.22;95402.00;5013049;28;20449;-60
2024/01/13 07:52:09;;;;;;;32.03;14.50;;;0.60;77.80;;;0.21;50.84;95400.41;5010010;28;20457;-62
2024/01/13 07:54:37;;;;;;;25.73;15.30;;;0.60;78.10;;;0.16;50.79;95406.59;5012467;28;20825;-60
2024/01/13 07:57:05;;;;;;;29.87;14.83;;;0.50;78.30;;;0.17;51.05;95404.84;5012123;28;20954;-61
2024/01/13 07:59:33;;;;;;;30.90;14.50;;;0.60;78.60;;;0.16;51.33;95400.59;5009144;28;20451;-61
2024/01/13 08:02:00;;;;;;;21.73;11.90;;;0.50;78.90;;;0.17;51.36;95394.50;5006028;28;20498;-60
2024/01/13 08:04:28;;;;;;;32.73;15.13;;;0.50;78.90;;;0.22;51.84;95392.56;5010865;28;20453;-61
2024/01/13 08:06:56;;;;;;;20.80;13.37;;;0.60;79.60;;;0.35;51.07;95401.47;5005808;28;21061;-61
2024/01/13 08:09:24;;;;;;;25.00;13.33;;;0.70;79.60;;;0.49;52.52;95398.31;5008240;28;20485;-60
2024/01/13 08:11:51;;;;;;;27.80;14.07;;;0.80;80.20;;;0.62;52.52;95400.38;5012126;28;20966;-60
2024/01/13 08:14:18;;;;;;;25.23;12.43;;;0.90;82.10;;;0.69;50.88;95400.03;5010196;28;20457;-60
2024/01/13 08:16:45;;;;;;;20.37;11.87;;;1.00;79.70;;;0.70;50.94;95393.97;5012272;28;20879;-62
2024/01/13 08:19:13;;;;;;;20.17;12.43;;;1.00;79.00;;;0.74;51.03;95393.81;5006405;28;20447;-61
2024/01/13 08:21:40;;;;;;;24.53;12.80;;;1.10;78.90;;;0.76;50.81;95397.19;5008068;28;20473;-60
2024/01/13 08:24:09;;;;;;;20.97;11.07;;;1.10;78.40;;;0.76;50.70;95397.19;5009572;28;20486;-60
2024/01/13 08:26:37;;;;;;;23.43;11.97;;;1.10;77.70;;;0.75;50.75;95400.69;5004923;28;20461;-61
2024/01/13 08:29:04;;;;;;;25.97;13.10;;;1.10;78.40;;;0.76;50.21;95398.03;5012286;28;20500;-61
2024/01/13 08:31:31;;;;;;;20.00;11.10;;;1.10;78.10;;;0.79;50.70;95403.09;5010295;28;20473;-61
2024/01/13 08:33:58;;;;;;;23.63;12.50;;;1.10;78.50;;;0.83;50.72;95399.44;5008485;28;20457;-61
2024/01/13 08:36:26;;;;;;;25.33;12.33;;;1.20;78.60;;;0.89;51.00;95387.97;5011936;28;20469;-62
2024/01/13 08:38:53;;;;;;;24.40;13.57;;;1.20;78.80;;;0.97;50.09;95393.66;5011568;28;20949;-61
2024/01/13 08:41:22;;;;;;;31.40;14.07;;;1.20;78.50;;;1.04;51.19;95397.66;5012135;28;20848;-60
2024/01/13 08:43:49;;;;;;;29.50;13.90;;;1.30;78.40;;;1.07;49.92;95392.31;5011821;28;20460;-59
2024/01/13 08:46:16;;;;;;;31.47;13.53;;;1.40;78.20;;;1.22;50.82;95389.94;5011989;28;20473;-60
2024/01/13 08:48:44;;;;;;;20.83;10.87;;;1.50;78.50;;;1.66;50.68;95379.25;5011560;28;20490;-60
2024/01/13 08:51:11;;;;;;;23.20;13.27;;;1.80;78.10;;;2.29;49.74;95372.72;5007742;28;20485;-61
2024/01/13 08:53:38;;;;;;;25.77;14.20;;;2.30;78.10;;;2.95;48.41;95360.72;5011723;28;20447;-61
2024/01/13 08:56:06;;;;;;;23.70;12.37;;;2.90;76.60;;;3.35;46.91;95351.59;5011857;28;20844;-61
2024/01/13 08:58:35;;;;;;;17.27;10.63;;;3.30;74.30;;;3.56;45.99;95352.19;5012835;28;20448;-61
2024/01/13 09:01:02;;;;;;;22.30;12.30;;;3.60;71.80;;;3.54;45.96;95351.41;5013399;28;20477;-61
2024/01/13 09:03:30;;;;;;;22.73;11.03;;;3.70;71.70;;;3.55;46.75;95344.47;5009945;28;20529;-62
2024/01/13 09:05:57;;;;;;;18.93;12.40;;;3.70;71.70;;;3.84;46.49;95350.63;5009979;28;20497;-60
2024/01/13 09:08:25;;;;;;;19.83;11.83;;;4.00;71.90;;;4.40;46.39;95337.84;5007701;28;20577;-61
2024/01/13 09:10:52;;;;;;;15.80;10.20;;;4.40;72.20;;;5.16;45.23;95326.31;5010070;28;20473;-60
2024/01/13 09:13:20;;;;;;;26.60;9.97;;;5.10;70.40;;;6.05;44.44;95335.47;5009296;28;20472;-59
2024/01/13 09:15:49;;;;;;;18.40;9.77;;;5.90;71.00;;;6.98;40.78;95321.41;5009930;28;20466;-62
2024/01/13 09:18:16;;;;;;;15.10;8.97;;;6.70;65.40;;;7.70;40.04;95323.31;5008345;28;20453;-61
2024/01/13 09:20:44;;;;;;;14.93;8.70;;;7.40;61.90;;;8.08;40.57;95319.66;5010592;28;20850;-61
2024/01/13 09:23:11;;;;;;;13.97;8.50;;;7.80;61.70;;;8.06;40.15;95311.94;5011572;28;20457;-61
2024/01/13 09:25:38;;;;;;;16.77;8.37;;;8.00;60.90;;;7.85;39.31;95309.13;5007008;28;20478;-60
2024/01/13 09:28:06;;;;;;;17.83;9.20;;;8.00;58.70;;;7.61;39.48;95310.91;5010152;28;20489;-60
2024/01/13 09:30:33;;;;;;;15.30;8.27;;;7.80;58.50;;;7.48;40.16;95298.69;5010760;28;20477;-60
2024/01/13 09:33:04;;;;;;;14.13;9.00;;;7.70;58.40;;;7.47;38.42;95291.78;5009807;28;20464;-59
2024/01/13 09:35:31;;;;;;;13.23;8.40;;;7.60;57.10;;;7.39;39.82;95294.13;5009880;28;20473;-60
2024/01/13 09:37:58;;;;;;;13.17;8.83;;;7.60;58.20;;;7.42;39.84;95296.53;5010933;28;20516;-60
2024/01/13 09:40:26;;;;;;;15.70;9.03;;;7.50;57.40;;;7.34;40.00;95299.69;5009000;28;21032;-61
2024/01/13 09:43:03;;;;;;;13.30;8.83;;;7.40;58.70;;;7.09;40.35;95300.56;5008976;28;20536;-61
2024/01/13 09:45:31;;;;;;;13.40;9.10;;;7.20;57.70;;;6.73;39.54;95293.53;5010122;28;20516;-61
2024/01/13 09:47:58;;;;;;;14.73;8.90;;;7.00;57.60;;;6.31;39.80;95283.28;5010842;28;20457;-61
2024/01/13 09:50:27;;;;;;;11.73;8.40;;;6.60;56.30;;;5.88;40.60;95283.50;5008755;28;20469;-62
2024/01/13 09:52:55;;;;;;;13.07;8.73;;;6.30;57.60;;;5.49;40.69;95285.97;5010721;28;20942;-61
2024/01/13 09:55:22;;;;;;;20.67;10.50;;;5.90;57.80;;;5.16;41.32;95268.94;5011072;28;20474;-61
2024/01/13 09:57:49;;;;;;;16.23;8.67;;;5.50;58.30;;;4.88;41.76;95275.06;5010660;28;20476;-62
2024/01/13 10:00:17;;;;;;;17.27;10.17;;;5.20;59.00;;;4.63;42.50;95279.19;5006459;28;20540;-62
2024/01/13 10:02:44;;;;;;;13.47;8.60;;;5.00;60.00;;;4.39;42.88;95270.25;5008734;28;20454;-61
2024/01/13 10:05:12;;;;;;;17.30;9.87;;;4.70;60.60;;;4.26;43.21;95264.91;5007338;28;20496;-61
2024/01/13 10:07:41;;;;;;;15.07;8.73;;;4.60;61.40;;;4.21;42.92;95259.97;5007062;28;20827;-61
2024/01/13 10:10:09;;;;;;;14.50;8.83;;;4.50;61.10;;;4.16;43.59;95259.41;5003943;28;20994;-61
2024/01/13 10:12:37;;;;;;;18.47;9.20;;;4.40;61.60;;;4.07;43.65;95252.97;5009508;28;21037;-61